createdAt,value
2019-05-01T00:00:55.273Z,91.30
2019-05-01T00:03:44.391Z,91.40
2019-05-01T00:06:15.428Z,91.30
2019-05-01T00:08:44.844Z,90.70
2019-05-01T00:11:14.407Z,90.60
2019-05-01T00:13:43.808Z,90.60
2019-05-01T00:16:13.249Z,90.70
2019-05-01T00:18:42.578Z,90.80
2019-05-01T00:21:11.962Z,90.40
2019-05-01T00:23:41.304Z,90.70
2019-05-01T00:26:10.624Z,90.70
2019-05-01T00:28:40.077Z,90.60
2019-05-01T00:31:09.385Z,91.00
2019-05-01T00:33:38.720Z,91.00
2019-05-01T00:36:08.038Z,90.70
2019-05-01T00:38:37.378Z,91.00
2019-05-01T00:41:06.696Z,90.70
2019-05-01T00:43:36.037Z,90.40
2019-05-01T00:46:05.496Z,90.20
2019-05-01T00:48:34.839Z,90.70
2019-05-01T00:51:04.151Z,90.70
2019-05-01T00:53:33.487Z,91.00
2019-05-01T00:56:10.691Z,91.30
2019-05-01T00:58:41.670Z,91.70
2019-05-01T01:01:12.626Z,91.90
2019-05-01T01:03:43.572Z,91.80
2019-05-01T01:06:12.951Z,91.50
2019-05-01T01:08:42.283Z,91.70
2019-05-01T01:11:11.603Z,91.80
2019-05-01T01:13:40.938Z,91.60
2019-05-01T01:16:10.248Z,91.30
2019-05-01T01:18:40.232Z,91.50
2019-05-01T01:21:09.594Z,91.80
2019-05-01T01:23:39.478Z,91.30
2019-05-01T01:26:08.966Z,91.10
2019-05-01T01:28:38.450Z,90.90
2019-05-01T01:31:09.307Z,91.40
2019-05-01T01:33:38.717Z,91.20
2019-05-01T01:36:08.029Z,91.20
2019-05-01T01:38:37.386Z,90.70
2019-05-01T01:41:06.832Z,90.70
2019-05-01T01:43:50.221Z,90.60
2019-05-01T01:46:21.335Z,90.70
2019-05-01T01:48:50.670Z,91.50
2019-05-01T01:51:20.626Z,91.80
2019-05-01T01:53:52.080Z,91.70
2019-05-01T01:56:22.153Z,91.60
2019-05-01T01:58:52.528Z,91.40
2019-05-01T02:01:35.770Z,91.70
2019-05-01T02:04:19.259Z,91.60
2019-05-01T02:06:50.584Z,91.70
2019-05-01T02:09:19.927Z,91.90
2019-05-01T02:11:50.277Z,91.60
2019-05-01T02:14:19.691Z,90.90
2019-05-01T02:16:49.001Z,91.30
2019-05-01T02:19:18.420Z,91.80
2019-05-01T02:21:47.863Z,91.90
2019-05-01T02:24:17.200Z,92.00
2019-05-01T02:26:48.151Z,92.20
2019-05-01T02:29:35.860Z,92.20
2019-05-01T02:32:05.362Z,92.10
2019-05-01T02:34:36.733Z,92.00
2019-05-01T02:37:06.598Z,92.00
2019-05-01T02:39:37.269Z,92.10
2019-05-01T02:42:08.323Z,91.70
2019-05-01T02:44:52.210Z,91.70
2019-05-01T02:47:26.223Z,91.90
2019-05-01T02:50:08.589Z,91.00
2019-05-01T02:52:40.392Z,90.30
2019-05-01T02:55:16.046Z,90.80
2019-05-01T02:57:47.498Z,91.20
2019-05-01T03:00:16.904Z,91.40
2019-05-01T03:02:46.348Z,91.20
2019-05-01T03:05:15.829Z,91.10
2019-05-01T03:07:45.283Z,91.70
2019-05-01T03:10:14.955Z,91.90
2019-05-01T03:12:46.995Z,91.70
2019-05-01T03:15:18.626Z,90.90
2019-05-01T03:17:56.365Z,90.70
2019-05-01T03:20:27.520Z,91.00
2019-05-01T03:23:14.288Z,91.30
2019-05-01T03:25:44.664Z,91.70
2019-05-01T03:28:14.816Z,90.90
2019-05-01T03:30:44.698Z,90.90
2019-05-01T03:33:14.239Z,91.10
2019-05-01T03:35:43.829Z,91.10
2019-05-01T03:38:13.584Z,91.60
2019-05-01T03:40:43.143Z,91.60
2019-05-01T03:43:13.497Z,91.40
2019-05-01T03:45:43.975Z,91.10
2019-05-01T03:48:13.546Z,90.90
2019-05-01T03:50:46.568Z,91.30
2019-05-01T03:53:14.493Z,91.20
2019-05-01T03:55:44.049Z,91.80
2019-05-01T03:58:13.460Z,92.20
2019-05-01T04:01:00.572Z,91.70
2019-05-01T04:03:31.890Z,91.10
2019-05-01T04:06:01.310Z,91.50
2019-05-01T04:08:30.752Z,91.10
2019-05-01T04:11:00.495Z,90.80
2019-05-01T04:13:30.181Z,91.20
2019-05-01T04:16:00.401Z,92.10
2019-05-01T04:18:30.284Z,91.70
2019-05-01T04:20:59.669Z,91.80
2019-05-01T04:23:29.391Z,91.40
2019-05-01T04:25:58.923Z,91.00
2019-05-01T04:28:42.696Z,91.80
2019-05-01T04:31:13.651Z,91.90
2019-05-01T04:33:45.098Z,92.00
2019-05-01T04:36:16.221Z,92.20
2019-05-01T04:38:45.632Z,92.50
2019-05-01T04:41:15.192Z,92.70
2019-05-01T04:43:44.525Z,92.50
2019-05-01T04:46:13.850Z,92.40
2019-05-01T04:48:43.318Z,92.40
2019-05-01T04:51:12.978Z,92.40
2019-05-01T04:53:43.083Z,92.50
2019-05-01T04:56:12.469Z,92.50
2019-05-01T04:58:42.180Z,92.30
2019-05-01T05:01:11.566Z,92.30
2019-05-01T05:03:41.067Z,92.00
2019-05-01T05:06:10.516Z,92.20
2019-05-01T05:08:39.917Z,91.40
2019-05-01T05:11:10.937Z,91.40
2019-05-01T05:13:46.959Z,91.90
2019-05-01T05:16:26.666Z,91.50
2019-05-01T05:18:56.136Z,90.80
2019-05-01T05:21:25.511Z,90.60
2019-05-01T05:23:55.118Z,90.70
2019-05-01T05:26:24.771Z,90.10
2019-05-01T05:28:54.345Z,90.30
2019-05-01T05:31:25.839Z,90.90
2019-05-01T05:33:57.223Z,90.90
2019-05-01T05:36:28.580Z,90.50
2019-05-01T05:39:02.102Z,90.20
2019-05-01T05:41:33.357Z,90.00
2019-05-01T05:44:03.036Z,90.60
2019-05-01T05:46:32.417Z,90.40
2019-05-01T05:49:01.923Z,90.20
2019-05-01T05:51:35.065Z,90.30
2019-05-01T05:54:14.874Z,90.00
2019-05-01T05:56:57.935Z,89.80
2019-05-01T05:59:44.773Z,90.20
2019-05-01T06:02:25.407Z,90.50
2019-05-01T06:05:05.394Z,90.10
2019-05-01T06:07:41.055Z,89.60
2019-05-01T06:10:12.183Z,89.30
2019-05-01T06:13:02.728Z,88.70
2019-05-01T06:15:41.286Z,88.80
2019-05-01T06:18:09.868Z,88.20
2019-05-01T06:20:43.763Z,88.00
2019-05-01T06:23:25.068Z,87.90
2019-05-01T06:26:02.562Z,87.30
2019-05-01T06:28:32.365Z,88.70
2019-05-01T06:31:23.031Z,88.10
2019-05-01T06:33:53.087Z,88.00
2019-05-01T06:36:23.616Z,86.50
2019-05-01T06:38:52.329Z,87.00
2019-05-01T06:41:22.002Z,86.50
2019-05-01T06:43:57.149Z,86.00
2019-05-01T06:46:36.893Z,86.70
2019-05-01T06:49:24.199Z,86.00
2019-05-01T06:51:55.342Z,84.50
2019-05-01T06:54:28.075Z,84.00
2019-05-01T06:56:59.054Z,84.00
2019-05-01T06:59:31.307Z,83.90
2019-05-01T07:02:01.911Z,84.10
2019-05-01T07:04:37.345Z,83.20
2019-05-01T07:07:06.599Z,82.60
2019-05-01T07:09:36.994Z,82.60
2019-05-01T07:12:09.114Z,82.40
2019-05-01T07:14:39.069Z,82.90
2019-05-01T07:17:09.025Z,82.30
2019-05-01T07:19:57.354Z,81.30
2019-05-01T07:22:28.814Z,80.20
2019-05-01T07:24:59.015Z,81.30
2019-05-01T07:27:29.807Z,81.70
2019-05-01T07:30:01.245Z,81.40
2019-05-01T07:32:31.024Z,80.10
2019-05-01T07:35:01.904Z,79.70
2019-05-01T07:37:34.823Z,78.70
2019-05-01T07:40:06.359Z,77.70
2019-05-01T07:42:37.691Z,78.40
2019-05-01T07:45:26.549Z,77.40
2019-05-01T07:48:01.006Z,77.70
2019-05-01T07:50:31.883Z,77.30
2019-05-01T07:53:19.390Z,76.70
2019-05-01T07:55:52.712Z,75.60
2019-05-01T07:58:20.388Z,75.70
2019-05-01T08:01:13.228Z,74.30
2019-05-01T08:03:42.950Z,74.20
2019-05-01T08:06:16.328Z,75.00
2019-05-01T08:08:44.687Z,75.00
2019-05-01T08:11:14.012Z,74.70
2019-05-01T08:13:43.387Z,72.90
2019-05-01T08:16:12.781Z,73.00
2019-05-01T08:18:46.509Z,72.90
2019-05-01T08:21:21.195Z,72.40
2019-05-01T08:23:48.604Z,72.00
2019-05-01T08:26:17.948Z,71.90
2019-05-01T08:28:48.934Z,72.30
2019-05-01T08:31:32.099Z,73.80
2019-05-01T08:34:06.033Z,72.30
2019-05-01T08:36:35.355Z,72.40
2019-05-01T08:39:09.212Z,70.30
2019-05-01T08:41:39.540Z,69.10
2019-05-01T08:44:09.441Z,70.00
2019-05-01T08:46:57.149Z,69.40
2019-05-01T08:49:30.637Z,68.70
2019-05-01T08:51:59.987Z,68.30
2019-05-01T08:54:33.646Z,67.30
2019-05-01T08:57:00.399Z,68.40
2019-05-01T08:59:29.918Z,69.10
2019-05-01T09:02:08.828Z,68.20
2019-05-01T09:04:32.328Z,66.40
2019-05-01T09:07:01.645Z,64.40
2019-05-01T09:09:31.025Z,64.60
2019-05-01T09:12:00.383Z,65.10
2019-05-01T09:14:34.872Z,66.10
2019-05-01T09:17:00.850Z,66.10
2019-05-01T09:19:30.280Z,65.40
2019-05-01T09:21:59.610Z,64.90
2019-05-01T09:24:29.421Z,64.50
2019-05-01T09:27:12.306Z,63.70
2019-05-01T09:29:46.962Z,63.10
2019-05-01T09:32:14.466Z,62.30
2019-05-01T09:34:43.808Z,61.90
2019-05-01T09:37:13.133Z,62.60
2019-05-01T09:39:42.468Z,61.00
2019-05-01T09:42:12.166Z,60.40
2019-05-01T09:44:41.517Z,59.40
2019-05-01T09:47:10.896Z,59.40
2019-05-01T09:49:40.519Z,57.70
2019-05-01T09:52:23.356Z,57.90
2019-05-01T09:54:55.529Z,59.00
2019-05-01T09:57:24.852Z,55.80
2019-05-01T09:59:54.201Z,56.60
2019-05-01T10:02:23.612Z,54.70
2019-05-01T10:04:52.948Z,54.80
2019-05-01T10:07:23.842Z,53.10
2019-05-01T10:09:53.989Z,51.30
2019-05-01T10:12:23.442Z,52.70
2019-05-01T10:14:52.797Z,53.40
2019-05-01T10:17:22.122Z,51.40
2019-05-01T10:19:51.456Z,51.90
2019-05-01T10:22:20.794Z,49.60
2019-05-01T10:24:50.128Z,48.60
2019-05-01T10:27:21.097Z,49.20
2019-05-01T10:29:52.094Z,52.30
2019-05-01T10:32:23.267Z,50.90
2019-05-01T10:34:56.724Z,50.00
2019-05-01T10:37:28.495Z,48.80
2019-05-01T10:39:56.329Z,49.60
2019-05-01T10:42:25.660Z,51.50
2019-05-01T10:44:55.000Z,50.80
2019-05-01T10:47:24.328Z,48.00
2019-05-01T10:49:53.704Z,45.90
2019-05-01T10:52:23.144Z,45.30
2019-05-01T10:54:52.477Z,46.30
2019-05-01T10:57:21.808Z,43.30
2019-05-01T10:59:51.150Z,43.20
2019-05-01T11:02:20.476Z,42.70
2019-05-01T11:04:49.820Z,41.70
2019-05-01T11:07:19.151Z,42.60
2019-05-01T11:09:48.496Z,45.70
2019-05-01T11:12:17.815Z,42.20
2019-05-01T11:14:47.169Z,38.40
2019-05-01T11:17:16.485Z,39.00
2019-05-01T11:19:45.796Z,35.90
2019-05-01T11:22:15.140Z,34.40
2019-05-01T11:24:44.472Z,31.60
2019-05-01T11:27:13.954Z,32.90
2019-05-01T11:29:43.275Z,31.20
2019-05-01T11:32:14.262Z,32.50
2019-05-01T11:34:47.907Z,31.50
2019-05-01T11:37:21.586Z,31.10
2019-05-01T11:39:52.636Z,32.00
2019-05-01T11:42:21.991Z,30.00
2019-05-01T11:44:51.420Z,29.10
2019-05-01T11:47:21.101Z,30.30
2019-05-01T11:49:50.441Z,33.20
2019-05-01T11:52:19.784Z,33.00
2019-05-01T11:54:49.111Z,33.20
2019-05-01T11:57:18.444Z,33.10
2019-05-01T11:59:47.762Z,34.10
2019-05-01T12:02:17.099Z,35.60
2019-05-01T12:04:46.418Z,34.10
2019-05-01T12:07:15.865Z,33.00
2019-05-01T12:09:45.209Z,35.20
2019-05-01T12:12:16.346Z,33.30
2019-05-01T12:14:45.674Z,34.60
2019-05-01T12:17:28.665Z,35.70
2019-05-01T12:19:58.003Z,34.90
2019-05-01T12:22:27.351Z,34.60
2019-05-01T12:24:56.692Z,35.00
2019-05-01T12:27:26.038Z,33.60
2019-05-01T12:29:55.360Z,34.10
2019-05-01T12:32:24.711Z,34.80
2019-05-01T12:34:54.061Z,34.10
2019-05-01T12:37:30.951Z,33.20
2019-05-01T12:40:00.268Z,35.70
2019-05-01T12:42:31.240Z,34.60
2019-05-01T12:45:00.633Z,33.90
2019-05-01T12:47:40.738Z,34.70
2019-05-01T12:50:11.205Z,31.40
2019-05-01T12:52:42.191Z,34.10
2019-05-01T12:55:24.922Z,34.90
2019-05-01T12:57:54.280Z,31.20
2019-05-01T13:00:47.044Z,31.40
2019-05-01T13:03:16.459Z,33.00
2019-05-01T13:05:45.784Z,31.30
2019-05-01T13:08:15.128Z,35.00
2019-05-01T13:10:44.598Z,33.80
2019-05-01T13:13:13.949Z,34.20
2019-05-01T13:15:43.271Z,32.50
2019-05-01T13:18:12.612Z,33.30
2019-05-01T13:20:41.933Z,34.10
2019-05-01T13:23:11.280Z,31.50
2019-05-01T13:25:40.674Z,31.20
2019-05-01T13:28:30.141Z,32.40
2019-05-01T13:31:04.019Z,30.00
2019-05-01T13:33:33.445Z,30.00
2019-05-01T13:36:02.758Z,32.20
2019-05-01T13:38:32.100Z,30.70
2019-05-01T13:41:01.435Z,30.80
2019-05-01T13:43:30.913Z,30.30
2019-05-01T13:46:00.238Z,30.90
2019-05-01T13:48:29.698Z,30.40
2019-05-01T13:50:59.026Z,29.70
2019-05-01T13:53:28.379Z,30.40
2019-05-01T13:55:57.705Z,30.40
2019-05-01T13:58:27.137Z,30.90
2019-05-01T14:00:56.456Z,29.60
2019-05-01T14:03:26.062Z,30.90
2019-05-01T14:05:55.393Z,30.90
2019-05-01T14:08:24.757Z,29.50
2019-05-01T14:10:54.084Z,30.30
2019-05-01T14:13:23.439Z,29.40
2019-05-01T14:15:52.785Z,29.30
2019-05-01T14:18:22.132Z,29.00
2019-05-01T14:20:55.831Z,29.10
2019-05-01T14:23:26.834Z,29.30
2019-05-01T14:26:06.133Z,29.10
2019-05-01T14:28:36.631Z,28.90
2019-05-01T14:31:07.057Z,29.00
2019-05-01T14:33:36.464Z,28.90
2019-05-01T14:36:06.154Z,29.10
2019-05-01T14:38:35.512Z,29.10
2019-05-01T14:41:05.287Z,28.80
2019-05-01T14:43:34.651Z,28.30
2019-05-01T14:46:03.982Z,28.60
2019-05-01T14:48:33.297Z,28.90
2019-05-01T14:51:02.638Z,29.00
2019-05-01T14:53:32.032Z,30.70
2019-05-01T14:56:01.468Z,29.70
2019-05-01T14:58:30.959Z,28.70
2019-05-01T15:01:00.368Z,29.40
2019-05-01T15:03:29.701Z,28.70
2019-05-01T15:05:59.074Z,27.90
2019-05-01T15:08:28.392Z,27.60
2019-05-01T15:10:57.738Z,28.30
2019-05-01T15:13:28.757Z,27.10
2019-05-01T15:15:59.770Z,27.30
2019-05-01T15:18:48.813Z,26.50
2019-05-01T15:21:18.150Z,26.90
2019-05-01T15:23:53.651Z,28.00
2019-05-01T15:26:18.537Z,27.50
2019-05-01T15:28:48.070Z,27.90
2019-05-01T15:31:17.560Z,27.80
2019-05-01T15:33:46.918Z,27.80
2019-05-01T15:36:16.350Z,28.60
2019-05-01T15:38:45.698Z,28.50
2019-05-01T15:41:16.746Z,27.70
2019-05-01T15:43:50.362Z,27.70
2019-05-01T15:46:19.782Z,27.60
2019-05-01T15:48:49.106Z,28.30
2019-05-01T15:51:18.442Z,28.30
2019-05-01T15:53:47.754Z,28.00
2019-05-01T15:56:17.115Z,26.90
2019-05-01T15:58:46.703Z,26.20
2019-05-01T16:01:16.034Z,27.00
2019-05-01T16:03:45.351Z,26.80
2019-05-01T16:06:14.881Z,27.40
2019-05-01T16:08:44.218Z,26.60
2019-05-01T16:14:00.292Z,27.00
2019-05-01T16:16:30.077Z,26.60
2019-05-01T16:18:59.413Z,27.20
2019-05-01T16:21:28.760Z,28.30
2019-05-01T16:23:58.103Z,27.40
2019-05-01T16:26:27.466Z,27.60
2019-05-01T16:28:56.782Z,28.00
2019-05-01T16:31:26.230Z,26.30
2019-05-01T16:33:55.552Z,26.00
2019-05-01T16:36:24.905Z,27.10
2019-05-01T16:38:55.857Z,28.10
2019-05-01T16:41:26.792Z,28.70
2019-05-01T16:43:56.087Z,27.50
2019-05-01T16:46:25.426Z,27.80
2019-05-01T16:48:56.706Z,27.50
2019-05-01T16:51:26.048Z,28.70
2019-05-01T16:53:55.362Z,27.80
2019-05-01T16:56:24.700Z,28.20
2019-05-01T16:58:54.034Z,28.30
2019-05-01T17:01:28.294Z,28.60
2019-05-01T17:04:15.236Z,28.90
2019-05-01T17:06:48.742Z,29.00
2019-05-01T17:09:35.616Z,28.60
2019-05-01T17:12:05.885Z,27.20
2019-05-01T17:14:35.544Z,27.60
2019-05-01T17:17:06.640Z,26.90
2019-05-01T17:19:35.981Z,26.80
2019-05-01T17:22:09.190Z,27.80
2019-05-01T17:24:36.591Z,29.40
2019-05-01T17:27:05.946Z,28.60
2019-05-01T17:29:35.266Z,29.10
2019-05-01T17:32:05.541Z,27.30
2019-05-01T17:34:34.996Z,29.40
2019-05-01T17:37:04.530Z,31.10
2019-05-01T17:39:33.866Z,30.70
2019-05-01T17:42:04.697Z,33.00
2019-05-01T17:44:34.232Z,33.50
2019-05-01T17:47:03.599Z,33.20
2019-05-01T17:49:32.997Z,33.60
2019-05-01T17:52:02.341Z,34.40
2019-05-01T17:54:31.732Z,35.90
2019-05-01T17:57:01.071Z,36.40
2019-05-01T17:59:30.380Z,36.20
2019-05-01T18:02:05.324Z,36.40
2019-05-01T18:04:34.103Z,36.90
2019-05-01T18:07:03.807Z,39.00
2019-05-01T18:09:33.124Z,38.30
2019-05-01T18:12:02.547Z,38.80
2019-05-01T18:14:31.882Z,41.00
2019-05-01T18:17:01.407Z,41.10
2019-05-01T18:19:30.803Z,42.20
2019-05-01T18:22:16.836Z,42.60
2019-05-01T18:24:53.915Z,42.60
2019-05-01T18:27:42.107Z,43.80
2019-05-01T18:30:15.832Z,44.60
2019-05-01T18:32:47.472Z,44.10
2019-05-01T18:35:16.274Z,44.10
2019-05-01T18:37:53.255Z,45.10
2019-05-01T18:40:39.209Z,45.10
2019-05-01T18:43:09.012Z,47.40
2019-05-01T18:45:53.496Z,47.50
2019-05-01T18:48:23.566Z,48.00
2019-05-01T18:50:55.090Z,50.20
2019-05-01T18:53:24.105Z,50.90
2019-05-01T18:55:53.487Z,51.10
2019-05-01T18:58:22.832Z,51.30
2019-05-01T19:00:52.350Z,51.70
2019-05-01T19:03:22.592Z,51.90
2019-05-01T19:05:52.076Z,52.40
2019-05-01T19:08:21.615Z,52.10
2019-05-01T19:10:50.967Z,52.90
2019-05-01T19:13:20.730Z,54.20
2019-05-01T19:15:50.110Z,53.80
2019-05-01T19:18:19.618Z,54.60
2019-05-01T19:20:59.287Z,55.40
2019-05-01T19:23:22.281Z,56.90
2019-05-01T19:25:51.510Z,57.40
2019-05-01T19:28:21.328Z,57.30
2019-05-01T19:30:50.758Z,57.20
2019-05-01T19:33:20.141Z,57.30
2019-05-01T19:35:49.466Z,56.50
2019-05-01T19:38:19.179Z,56.40
2019-05-01T19:40:48.551Z,58.20
2019-05-01T19:43:17.921Z,59.10
2019-05-01T19:45:47.316Z,59.00
2019-05-01T19:48:16.795Z,60.00
2019-05-01T19:50:48.373Z,61.00
2019-05-01T19:53:17.252Z,62.00
2019-05-01T19:55:46.787Z,62.80
2019-05-01T19:58:16.184Z,61.70
2019-05-01T20:00:54.897Z,61.90
2019-05-01T20:03:24.372Z,62.70
2019-05-01T20:05:53.752Z,62.30
2019-05-01T20:08:23.223Z,63.30
2019-05-01T20:10:52.612Z,63.20
2019-05-01T20:13:21.945Z,62.50
2019-05-01T20:15:51.357Z,63.10
2019-05-01T20:18:20.753Z,63.50
2019-05-01T20:20:50.238Z,63.00
2019-05-01T20:23:19.658Z,63.40
2019-05-01T20:25:51.053Z,65.20
2019-05-01T20:28:22.371Z,66.00
2019-05-01T20:30:51.104Z,65.70
2019-05-01T20:33:22.150Z,65.10
2019-05-01T20:35:51.580Z,66.10
2019-05-01T20:38:21.069Z,66.40
2019-05-01T20:40:50.469Z,66.40
2019-05-01T20:43:19.887Z,66.90
2019-05-01T20:45:51.144Z,67.10
2019-05-01T20:48:23.648Z,67.80
2019-05-01T20:50:51.327Z,68.70
2019-05-01T20:53:20.681Z,68.90
2019-05-01T20:55:51.655Z,69.70
2019-05-01T20:58:21.967Z,69.90
2019-05-01T21:00:54.664Z,70.60
2019-05-01T21:03:26.660Z,70.90
2019-05-01T21:05:57.634Z,70.00
2019-05-01T21:08:39.355Z,70.00
2019-05-01T21:11:15.873Z,70.20
2019-05-01T21:13:45.218Z,70.10
2019-05-01T21:16:14.616Z,70.60
2019-05-01T21:18:43.959Z,70.90
2019-05-01T21:21:14.180Z,70.80
2019-05-01T21:23:43.630Z,71.20
2019-05-01T21:26:13.757Z,70.70
2019-05-01T21:28:44.892Z,71.00
2019-05-01T21:31:14.282Z,70.90
2019-05-01T21:33:46.265Z,70.80
2019-05-01T21:36:14.668Z,70.20
2019-05-01T21:38:43.999Z,70.20
2019-05-01T21:41:15.010Z,71.70
2019-05-01T21:43:44.525Z,72.30
2019-05-01T21:46:13.845Z,72.20
2019-05-01T21:48:43.601Z,72.10
2019-05-01T21:51:13.007Z,72.70
2019-05-01T21:53:46.249Z,73.60
2019-05-01T21:56:13.609Z,74.50
2019-05-01T21:58:42.937Z,74.30
2019-05-01T22:01:12.357Z,74.00
2019-05-01T22:03:41.678Z,74.60
2019-05-01T22:06:15.222Z,75.20
2019-05-01T22:08:42.274Z,76.30
2019-05-01T22:11:11.986Z,75.90
2019-05-01T22:13:41.618Z,77.10
2019-05-01T22:16:12.601Z,77.70
2019-05-01T22:18:46.614Z,77.60
2019-05-01T22:21:17.732Z,77.10
2019-05-01T22:23:57.893Z,77.70
2019-05-01T22:26:28.849Z,77.00
2019-05-01T22:29:05.718Z,77.50
2019-05-01T22:31:57.046Z,77.40
2019-05-01T22:34:28.366Z,77.00
2019-05-01T22:36:57.832Z,78.00
2019-05-01T22:39:28.869Z,78.00
2019-05-01T22:41:58.335Z,77.70
2019-05-01T22:44:27.752Z,78.00
2019-05-01T22:46:57.076Z,77.10
2019-05-01T22:49:26.422Z,78.00
2019-05-01T22:51:55.747Z,77.20
2019-05-01T22:54:25.065Z,77.10
2019-05-01T22:56:54.405Z,77.00
2019-05-01T22:59:23.727Z,76.80
2019-05-01T23:01:54.703Z,76.50
2019-05-01T23:04:24.028Z,75.70
2019-05-01T23:06:53.444Z,74.80
2019-05-01T23:09:27.862Z,74.20
2019-05-01T23:11:54.469Z,75.10
2019-05-01T23:14:24.617Z,76.40
2019-05-01T23:16:58.772Z,77.20
2019-05-01T23:19:29.707Z,76.50
2019-05-01T23:21:59.017Z,77.40
2019-05-01T23:24:28.410Z,77.50
2019-05-01T23:26:57.757Z,77.30
2019-05-01T23:29:27.085Z,77.60
2019-05-01T23:31:56.409Z,77.60
2019-05-01T23:34:26.140Z,78.10
2019-05-01T23:36:56.820Z,78.70
2019-05-01T23:39:26.105Z,78.50
2019-05-01T23:41:55.444Z,78.30
2019-05-01T23:44:24.765Z,78.80
2019-05-01T23:46:54.102Z,79.70
2019-05-01T23:49:23.425Z,79.60
2019-05-01T23:51:52.767Z,79.70
2019-05-01T23:54:22.080Z,79.50
2019-05-01T23:56:51.426Z,80.20
2019-05-01T23:59:20.819Z,80.20
